Time;durP1;ratioP1;P1;durP2;ratioP2;P2;SDS_P1;SDS_P2;PMS_P1;PMS_P2;Temp;Humidity;BMP_temperature;BMP_pressure;BME280_temperature;BME280_humidity;BME280_pressure;Samples;Min_cycle;Max_cycle;Signal;HPM_P1;HPM_P2
2023/03/22 00:01:16;;;;;;;17.38;7.25;;;6.70;99.90;;;;;;5080206;28;20055;-61
2023/03/22 00:03:42;;;;;;;18.35;7.93;;;6.70;99.90;;;;;;5075196;28;20041;-60
2023/03/22 00:06:08;;;;;;;11.07;6.50;;;6.80;99.90;;;;;;5067155;28;20041;-61
2023/03/22 00:08:34;;;;;;;12.85;6.93;;;6.70;99.90;;;;;;5072515;28;20040;-58
2023/03/22 00:11:00;;;;;;;13.63;8.07;;;6.70;99.90;;;;;;5079821;28;20539;-59
2023/03/22 00:13:25;;;;;;;18.25;8.13;;;6.70;99.90;;;;;;5077708;28;20060;-59
2023/03/22 00:15:51;;;;;;;;;;;6.70;99.90;;;;;;5076251;28;20040;-62
2023/03/22 00:18:17;;;;;;;15.85;6.50;;;6.70;99.90;;;;;;5059653;28;19920;-61
2023/03/22 00:20:52;;;;;;;13.52;8.00;;;6.70;99.90;;;;;;5063530;28;20652;-62
2023/03/22 00:23:17;;;;;;;18.40;7.15;;;6.70;99.90;;;;;;5063388;28;20047;-64
2023/03/22 00:25:44;;;;;;;13.27;7.45;;;6.70;99.90;;;;;;5063587;28;20067;-63
2023/03/22 00:28:10;;;;;;;18.38;8.18;;;6.60;99.90;;;;;;5062770;28;20040;-63
2023/03/22 00:30:36;;;;;;;19.42;8.30;;;6.60;99.90;;;;;;5064159;28;20045;-60
2023/03/22 00:33:03;;;;;;;15.38;8.73;;;6.50;99.90;;;;;;5056615;28;20427;-63
2023/03/22 00:35:29;;;;;;;18.33;7.90;;;6.60;99.90;;;;;;5055307;28;20048;-61
2023/03/22 00:37:54;;;;;;;15.02;7.13;;;6.50;99.90;;;;;;5058877;28;20076;-62
2023/03/22 00:40:20;;;;;;;;;;;6.50;99.90;;;;;;5054095;28;20648;-62
2023/03/22 00:42:45;;;;;;;15.88;7.93;;;6.50;99.90;;;;;;5051654;28;19920;-61
2023/03/22 00:45:12;;;;;;;16.05;8.27;;;6.40;99.90;;;;;;5052926;28;20037;-63
2023/03/22 00:47:38;;;;;;;13.48;7.75;;;6.50;99.90;;;;;;5061476;28;20560;-63
2023/03/22 00:50:05;;;;;;;15.55;8.00;;;6.50;99.90;;;;;;5061199;28;20124;-62
2023/03/22 00:52:31;;;;;;;13.15;8.48;;;6.50;99.90;;;;;;5058179;28;20037;-62
2023/03/22 00:54:57;;;;;;;15.82;8.45;;;6.50;99.90;;;;;;5053625;28;20067;-61
2023/03/22 00:57:22;;;;;;;15.63;7.70;;;6.50;99.90;;;;;;5049827;28;20048;-63
2023/03/22 00:59:48;;;;;;;;;;;6.50;99.90;;;;;;5058534;28;20781;-58
2023/03/22 01:02:14;;;;;;;13.13;6.97;;;6.40;99.90;;;;;;5064383;28;20020;-61
2023/03/22 01:04:48;;;;;;;14.98;7.60;;;6.40;99.90;;;;;;5057954;28;20041;-63
2023/03/22 01:07:16;;;;;;;16.15;7.75;;;6.40;99.90;;;;;;5052652;28;20044;-61
2023/03/22 01:09:44;;;;;;;17.23;7.93;;;6.40;99.90;;;;;;5061780;28;20047;-60
2023/03/22 01:12:10;;;;;;;12.57;7.53;;;6.40;99.90;;;;;;5056179;28;20828;-62
2023/03/22 01:14:36;;;;;;;14.30;7.78;;;6.40;99.90;;;;;;5058627;28;20033;-62
2023/03/22 01:17:02;;;;;;;18.98;8.20;;;6.40;99.90;;;;;;5054660;28;20421;-62
2023/03/22 01:19:28;;;;;;;;;;;6.40;99.90;;;;;;5057789;28;20052;-62
2023/03/22 01:21:54;;;;;;;17.35;7.10;;;6.40;99.90;;;;;;5048115;28;20145;-62
2023/03/22 01:24:19;;;;;;;;;;;6.40;99.90;;;;;;5058265;28;20600;-61
2023/03/22 01:26:45;;;;;;;14.32;7.28;;;6.40;99.90;;;;;;5049544;28;19924;-61
2023/03/22 01:29:11;;;;;;;16.10;6.90;;;6.40;99.90;;;;;;5054529;28;20058;-63
2023/03/22 01:31:36;;;;;;;16.13;7.15;;;6.40;99.90;;;;;;5057726;28;20036;-62
2023/03/22 01:34:02;;;;;;;15.10;8.15;;;6.40;99.90;;;;;;5059572;28;20039;-61
2023/03/22 01:36:28;;;;;;;15.02;8.35;;;6.30;99.90;;;;;;5051690;28;20347;-62
2023/03/22 01:38:54;;;;;;;11.00;7.60;;;6.40;99.90;;;;;;5058306;28;20044;-63
2023/03/22 01:41:20;;;;;;;12.68;7.47;;;6.30;99.90;;;;;;5060168;28;20053;-63
2023/03/22 01:44:05;;;;;;;;;;;6.30;99.90;;;;;;5055654;28;20041;-61
2023/03/22 01:46:31;;;;;;;12.10;7.15;;;6.30;99.90;;;;;;5049003;28;20059;-62
2023/03/22 01:49:00;;;;;;;15.98;8.05;;;6.30;99.90;;;;;;5055903;28;20658;-63
2023/03/22 01:51:27;;;;;;;14.88;8.02;;;6.30;99.90;;;;;;5050147;28;20040;-62
2023/03/22 01:53:59;;;;;;;16.00;8.50;;;6.30;99.90;;;;;;5057707;28;20386;-63
2023/03/22 01:56:29;;;;;;;12.80;7.78;;;6.30;99.90;;;;;;5064986;28;20060;-63
2023/03/22 01:58:56;;;;;;;10.95;7.00;;;6.30;99.90;;;;;;5053308;28;20044;-63
2023/03/22 02:01:22;;;;;;;14.38;8.30;;;6.30;99.90;;;;;;5050943;28;20041;-62
2023/03/22 02:04:11;;;;;;;12.20;7.60;;;6.30;99.90;;;;;;5057342;28;20052;-60
2023/03/22 02:06:38;;;;;;;13.40;7.80;;;6.30;99.90;;;;;;5048682;28;20135;-62
2023/03/22 02:09:07;;;;;;;18.92;9.05;;;6.30;99.90;;;;;;5058268;28;20056;-61
2023/03/22 02:11:37;;;;;;;15.15;8.18;;;6.30;99.90;;;;;;5064992;28;20067;-61
2023/03/22 02:14:21;;;;;;;14.68;9.02;;;6.20;99.90;;;;;;5058705;28;20747;-62
2023/03/22 02:17:13;;;;;;;13.65;7.65;;;6.30;99.90;;;;;;5056093;28;20036;-61
2023/03/22 02:19:41;;;;;;;13.63;8.05;;;6.20;99.90;;;;;;5057301;28;20036;-61
2023/03/22 02:22:27;;;;;;;10.68;7.82;;;6.20;99.90;;;;;;5060836;28;20146;-60
2023/03/22 02:25:10;;;;;;;16.05;7.60;;;6.20;99.90;;;;;;5052395;28;20037;-61
2023/03/22 02:27:48;;;;;;;14.57;8.77;;;6.20;99.90;;;;;;5052475;28;20589;-61
2023/03/22 02:30:28;;;;;;;15.77;8.27;;;6.20;99.90;;;;;;5056567;28;20566;-62
2023/03/22 02:33:06;;;;;;;14.70;8.13;;;6.20;99.90;;;;;;5080198;28;20038;-62
2023/03/22 02:35:31;;;;;;;21.25;8.32;;;6.20;99.90;;;;;;5079509;28;20037;-60
2023/03/22 02:38:13;;;;;;;22.75;8.32;;;6.20;99.90;;;;;;5085110;28;20030;-61
2023/03/22 02:41:05;;;;;;;15.30;8.13;;;6.20;99.90;;;;;;5080181;28;20039;-60
2023/03/22 02:43:37;;;;;;;14.98;8.65;;;6.20;99.90;;;;;;5082102;28;20036;-62
2023/03/22 02:46:12;;;;;;;17.83;8.60;;;6.20;99.90;;;;;;5084285;28;20051;-62
2023/03/22 02:49:00;;;;;;;16.17;8.53;;;6.20;99.90;;;;;;5083115;28;20115;-63
2023/03/22 02:51:35;;;;;;;11.80;7.47;;;6.20;99.90;;;;;;5077051;28;20043;-62
2023/03/22 02:54:07;;;;;;;15.95;8.02;;;6.20;99.90;;;;;;5079015;28;20750;-60
2023/03/22 02:56:41;;;;;;;15.07;8.35;;;6.20;99.90;;;;;;5076289;28;20147;-61
2023/03/22 02:59:10;;;;;;;18.00;8.48;;;6.20;99.90;;;;;;5079540;28;20510;-62
2023/03/22 03:01:43;;;;;;;19.15;9.30;;;6.20;99.90;;;;;;5084061;28;20093;-61
2023/03/22 03:04:15;;;;;;;13.23;8.05;;;6.20;99.90;;;;;;5079946;28;20043;-63
2023/03/22 03:06:44;;;;;;;16.60;8.57;;;6.10;99.90;;;;;;5083396;28;20621;-62
2023/03/22 03:09:16;;;;;;;14.35;8.25;;;6.10;99.90;;;;;;5079873;28;20044;-62
2023/03/22 03:11:47;;;;;;;12.25;7.65;;;6.10;99.90;;;;;;5084139;28;20032;-62
2023/03/22 03:14:39;;;;;;;15.73;7.78;;;6.10;99.90;;;;;;5079006;28;20044;-61
2023/03/22 03:17:17;;;;;;;14.93;8.23;;;6.00;99.90;;;;;;5081005;28;20071;-61
2023/03/22 03:20:07;;;;;;;15.38;8.75;;;6.00;99.90;;;;;;5080962;28;20036;-60
2023/03/22 03:23:06;;;;;;;16.27;8.57;;;6.00;99.90;;;;;;5076629;28;20055;-64
2023/03/22 03:26:01;;;;;;;16.05;8.63;;;6.00;99.90;;;;;;5079345;28;20086;-61
2023/03/22 03:28:46;;;;;;;19.02;8.15;;;6.00;99.90;;;;;;5065223;28;20048;-62
2023/03/22 03:31:34;;;;;;;16.90;8.15;;;5.90;99.90;;;;;;5081102;28;20032;-63
2023/03/22 03:34:18;;;;;;;14.35;8.73;;;5.90;99.90;;;;;;5078450;28;20532;-63
2023/03/22 03:36:52;;;;;;;13.85;8.02;;;5.90;99.90;;;;;;5079908;28;20496;-61
2023/03/22 03:39:20;;;;;;;17.60;9.10;;;5.90;99.90;;;;;;5077727;28;20050;-61
2023/03/22 03:41:49;;;;;;;13.07;8.38;;;6.00;99.90;;;;;;5083948;28;20123;-63
2023/03/22 03:44:16;;;;;;;12.15;7.78;;;6.10;99.90;;;;;;5075899;28;20040;-62
2023/03/22 03:46:44;;;;;;;13.57;8.65;;;6.10;99.90;;;;;;5080825;28;20036;-62
2023/03/22 03:49:11;;;;;;;16.40;8.45;;;6.10;99.90;;;;;;5081295;28;20521;-62
2023/03/22 03:51:58;;;;;;;16.02;8.35;;;6.20;99.90;;;;;;5083743;28;20036;-62
2023/03/22 03:54:24;;;;;;;14.07;7.25;;;6.20;99.90;;;;;;5083792;28;20067;-62
2023/03/22 03:56:49;;;;;;;13.73;7.72;;;6.20;99.90;;;;;;5085496;28;20439;-57
2023/03/22 03:59:15;;;;;;;;;;;6.30;99.90;;;;;;5081242;28;20116;-59
2023/03/22 04:01:48;;;;;;;18.30;8.90;;;6.30;99.90;;;;;;5086373;28;19977;-62
2023/03/22 04:04:26;;;;;;;17.13;8.88;;;6.30;99.90;;;;;;5083931;28;20117;-60
2023/03/22 04:06:55;;;;;;;11.55;7.60;;;6.30;99.90;;;;;;5083600;28;20177;-60
2023/03/22 04:09:48;;;;;;;16.92;9.27;;;6.40;99.90;;;;;;5083143;28;20040;-62
2023/03/22 04:12:13;;;;;;;12.15;7.90;;;6.50;99.90;;;;;;5082401;28;20129;-60
2023/03/22 04:14:40;;;;;;;12.80;7.68;;;6.50;99.90;;;;;;5078447;28;20137;-60
2023/03/22 04:17:06;;;;;;;18.17;9.95;;;6.50;99.90;;;;;;5085708;28;20541;-62
2023/03/22 04:19:32;;;;;;;18.08;9.88;;;6.60;99.90;;;;;;5082394;28;20119;-61
2023/03/22 04:21:57;;;;;;;;;;;6.60;99.90;;;;;;5088052;28;20035;-59
2023/03/22 04:24:23;;;;;;;13.63;8.63;;;6.60;99.90;;;;;;5083194;28;19916;-62
2023/03/22 04:26:48;;;;;;;;;;;6.60;99.90;;;;;;5087317;28;20040;-62
2023/03/22 04:29:14;;;;;;;15.40;8.88;;;6.70;99.90;;;;;;5082759;28;19920;-60
2023/03/22 04:31:40;;;;;;;18.08;8.70;;;6.70;99.90;;;;;;5086055;28;20040;-59
2023/03/22 04:34:06;;;;;;;18.75;9.50;;;6.80;99.90;;;;;;5082029;28;20655;-62
2023/03/22 04:36:35;;;;;;;;;;;6.80;99.90;;;;;;5087435;28;20040;-60
2023/03/22 04:39:04;;;;;;;17.23;8.93;;;6.90;99.90;;;;;;5082371;28;20003;-58
2023/03/22 04:41:30;;;;;;;15.50;8.85;;;6.90;99.90;;;;;;5079161;28;20032;-62
2023/03/22 04:43:56;;;;;;;18.35;9.75;;;7.00;99.90;;;;;;5080959;28;20040;-61
2023/03/22 04:46:22;;;;;;;15.15;9.18;;;7.00;99.90;;;;;;5086919;28;20517;-59
2023/03/22 04:48:48;;;;;;;14.80;9.10;;;7.00;99.90;;;;;;5082346;28;20041;-59
2023/03/22 04:51:14;;;;;;;17.00;8.88;;;7.10;99.90;;;;;;5087027;28;20032;-61
2023/03/22 04:53:40;;;;;;;19.23;9.90;;;7.10;99.90;;;;;;5079128;28;20056;-58
2023/03/22 04:56:06;;;;;;;;;;;7.10;99.90;;;;;;5086535;28;20097;-59
2023/03/22 04:58:34;;;;;;;16.77;9.18;;;7.20;99.90;;;;;;5080073;28;19917;-59
2023/03/22 05:01:00;;;;;;;16.90;9.38;;;7.20;99.90;;;;;;5084686;28;20028;-63
2023/03/22 05:03:26;;;;;;;17.15;9.02;;;7.20;99.90;;;;;;5082913;28;20630;-60
2023/03/22 05:05:53;;;;;;;17.80;10.32;;;7.20;99.90;;;;;;5083969;28;20044;-62
2023/03/22 05:08:21;;;;;;;16.92;8.85;;;7.30;99.90;;;;;;5081699;28;20050;-62
2023/03/22 05:10:46;;;;;;;18.77;8.88;;;7.30;99.90;;;;;;5083091;28;20098;-62
2023/03/22 05:13:12;;;;;;;13.70;8.88;;;7.30;99.90;;;;;;5081413;28;20574;-61
2023/03/22 05:15:38;;;;;;;;;;;7.30;99.90;;;;;;5082986;28;20044;-61
2023/03/22 05:18:04;;;;;;;14.68;7.82;;;7.30;99.90;;;;;;5086112;28;19973;-63
2023/03/22 05:20:29;;;;;;;13.65;7.60;;;7.30;99.90;;;;;;5082094;28;20036;-61
2023/03/22 05:22:55;;;;;;;16.38;8.35;;;7.40;99.90;;;;;;5084436;28;20066;-62
2023/03/22 05:25:21;;;;;;;18.40;8.68;;;7.40;99.90;;;;;;5081141;28;20062;-62
2023/03/22 05:27:49;;;;;;;13.18;7.75;;;7.40;99.90;;;;;;5085333;28;20028;-58
2023/03/22 05:30:15;;;;;;;20.05;8.77;;;7.50;99.90;;;;;;5080986;28;20036;-62
2023/03/22 05:32:44;;;;;;;17.55;8.70;;;7.40;99.90;;;;;;5085616;28;20086;-59
2023/03/22 05:35:10;;;;;;;15.57;7.68;;;7.50;99.90;;;;;;5084120;28;20035;-60
2023/03/22 05:37:37;;;;;;;17.55;8.52;;;7.50;99.90;;;;;;5087031;28;20040;-61
2023/03/22 05:40:04;;;;;;;14.10;7.65;;;7.50;99.90;;;;;;5081442;28;20434;-56
2023/03/22 05:42:31;;;;;;;17.50;8.02;;;7.40;99.90;;;;;;5085059;28;20040;-64
2023/03/22 05:44:56;;;;;;;17.25;8.65;;;7.50;99.90;;;;;;5083393;28;20281;-62
2023/03/22 05:47:22;;;;;;;15.15;7.25;;;7.50;99.90;;;;;;5084765;28;20797;-62
2023/03/22 05:49:47;;;;;;;11.65;6.93;;;7.50;99.90;;;;;;5083109;28;20036;-59
2023/03/22 05:52:13;;;;;;;15.52;6.65;;;7.40;99.90;;;;;;5079542;28;20028;-61
2023/03/22 05:54:38;;;;;;;18.00;7.90;;;7.40;99.90;;;;;;5081339;28;20044;-62
2023/03/22 05:57:04;;;;;;;;;;;7.40;99.90;;;;;;5083500;28;20460;-62
2023/03/22 05:59:30;;;;;;;14.32;7.70;;;7.50;99.90;;;;;;5080898;28;19916;-61
2023/03/22 06:01:55;;;;;;;13.75;7.18;;;7.50;99.90;;;;;;5084320;28;20032;-60
2023/03/22 06:04:21;;;;;;;13.00;6.88;;;7.50;99.90;;;;;;5079315;28;20039;-58
2023/03/22 06:06:47;;;;;;;14.60;6.75;;;7.50;99.90;;;;;;5080458;28;20048;-57
2023/03/22 06:09:13;;;;;;;;;;;7.50;99.90;;;;;;5080225;28;20031;-62
2023/03/22 06:11:39;;;;;;;9.10;5.28;;;7.60;99.90;;;;;;5085363;28;19920;-59
2023/03/22 06:14:05;;;;;;;13.57;5.93;;;7.70;99.90;;;;;;5079830;28;20036;-61
2023/03/22 06:16:30;;;;;;;;;;;7.80;99.90;;;;;;5081268;28;20404;-62
2023/03/22 06:18:56;;;;;;;19.83;6.45;;;8.10;99.90;;;;;;5075313;28;20344;-64
2023/03/22 06:21:21;;;;;;;;;;;8.40;99.90;;;;;;5085724;28;20482;-64
2023/03/22 06:23:47;;;;;;;12.35;5.22;;;8.70;99.90;;;;;;5080094;28;19923;-63
2023/03/22 06:26:13;;;;;;;10.18;5.50;;;8.70;99.90;;;;;;5085116;28;20121;-62
2023/03/22 06:28:38;;;;;;;;;;;8.70;99.90;;;;;;5080594;28;20036;-64
2023/03/22 06:31:08;;;;;;;16.65;6.25;;;8.60;99.90;;;;;;5084305;28;20272;-64
2023/03/22 06:33:35;;;;;;;22.35;6.60;;;8.50;99.90;;;;;;5082129;28;20035;-61
2023/03/22 06:36:01;;;;;;;15.40;6.00;;;8.50;99.90;;;;;;5081177;28;20128;-61
2023/03/22 06:38:28;;;;;;;11.30;5.35;;;8.50;99.90;;;;;;5077620;28;20055;-61
2023/03/22 06:40:53;;;;;;;13.10;5.78;;;8.60;99.90;;;;;;5082484;28;20101;-61
2023/03/22 06:43:19;;;;;;;;;;;8.60;99.90;;;;;;5082695;28;20032;-60
2023/03/22 06:45:46;;;;;;;12.50;5.38;;;8.80;99.90;;;;;;5078256;28;19935;-61
2023/03/22 06:48:11;;;;;;;13.73;5.15;;;8.90;99.90;;;;;;5080940;28;20068;-62
2023/03/22 06:50:37;;;;;;;;;;;9.00;99.90;;;;;;5080470;28;20569;-63
2023/03/22 06:53:04;;;;;;;11.90;4.88;;;9.10;99.90;;;;;;5075785;28;19920;-62
2023/03/22 06:55:33;;;;;;;9.95;4.88;;;9.20;99.90;;;;;;5079574;28;20028;-63
2023/03/22 06:58:00;;;;;;;12.95;5.22;;;9.30;99.90;;;;;;5080543;28;20115;-63
2023/03/22 07:00:27;;;;;;;13.32;4.75;;;9.30;99.90;;;;;;5079761;28;20049;-59
2023/03/22 07:02:52;;;;;;;15.25;5.00;;;9.20;99.90;;;;;;5084139;28;20571;-60
2023/03/22 07:05:18;;;;;;;;;;;9.10;99.90;;;;;;5082592;28;20139;-61
2023/03/22 07:07:45;;;;;;;11.02;5.05;;;9.10;99.90;;;;;;5083054;28;19928;-64
2023/03/22 07:10:11;;;;;;;13.52;5.18;;;9.10;99.90;;;;;;5078819;28;20032;-61
2023/03/22 07:12:36;;;;;;;;;;;9.00;99.90;;;;;;5083636;28;20040;-62
2023/03/22 07:15:02;;;;;;;11.05;5.10;;;8.90;99.90;;;;;;5078981;28;19923;-61
2023/03/22 07:17:28;;;;;;;;;;;8.80;99.90;;;;;;5084408;28;20036;-62
2023/03/22 07:19:53;;;;;;;12.68;4.93;;;8.70;99.90;;;;;;5079580;28;19959;-62
2023/03/22 07:22:23;;;;;;;13.95;4.80;;;8.70;99.90;;;;;;5079174;28;20446;-60
2023/03/22 07:24:49;;;;;;;13.93;5.15;;;8.80;99.90;;;;;;5078049;28;20128;-61
2023/03/22 07:27:15;;;;;;;12.30;5.15;;;8.80;99.90;;;;;;5079766;28;20070;-63
2023/03/22 07:29:41;;;;;;;10.45;5.20;;;8.80;99.90;;;;;;5083728;28;20089;-63
2023/03/22 07:32:07;;;;;;;;;;;8.90;99.90;;;;;;5080843;28;20040;-60
2023/03/22 07:34:32;;;;;;;10.38;4.20;;;9.20;99.90;;;;;;5082408;28;20006;-61
2023/03/22 07:36:58;;;;;;;;;;;9.50;99.90;;;;;;5083841;28;20088;-62
2023/03/22 07:39:24;;;;;;;9.55;3.63;;;9.80;99.90;;;;;;5083773;28;20009;-63
2023/03/22 07:41:50;;;;;;;13.20;5.07;;;10.00;99.90;;;;;;5078670;28;20044;-59
2023/03/22 07:44:16;;;;;;;8.13;4.25;;;10.10;99.90;;;;;;5080291;28;20040;-61
2023/03/22 07:46:42;;;;;;;8.85;3.13;;;10.10;99.90;;;;;;5085418;28;20040;-62
2023/03/22 07:49:08;;;;;;;;;;;10.00;99.90;;;;;;5084602;28;20044;-61
2023/03/22 07:51:33;;;;;;;9.52;3.80;;;9.70;99.90;;;;;;5075681;28;19916;-60
2023/03/22 07:54:00;;;;;;;9.98;3.50;;;9.50;99.90;;;;;;5084113;28;20488;-60
2023/03/22 07:56:26;;;;;;;7.50;3.17;;;9.40;99.90;;;;;;5081212;28;20691;-61
2023/03/22 07:58:52;;;;;;;;;;;9.40;99.90;;;;;;5078436;28;20029;-61
2023/03/22 08:01:17;;;;;;;8.57;3.58;;;9.40;99.90;;;;;;5084579;28;19969;-57
2023/03/22 08:03:43;;;;;;;;;;;9.40;99.90;;;;;;5077715;28;20067;-61
2023/03/22 08:06:10;;;;;;;7.60;2.47;;;9.50;99.90;;;;;;5086205;28;19920;-59
2023/03/22 08:08:36;;;;;;;8.77;3.03;;;9.70;99.90;;;;;;5081721;28;20036;-60
2023/03/22 08:11:02;;;;;;;;;;;10.00;99.90;;;;;;5086307;28;20046;-62
2023/03/22 08:13:28;;;;;;;6.80;2.78;;;10.10;99.90;;;;;;5083240;28;19931;-61
2023/03/22 08:15:53;;;;;;;;;;;10.30;99.90;;;;;;5081478;28;20059;-61
2023/03/22 08:18:19;;;;;;;11.95;2.72;;;10.30;99.90;;;;;;5084849;28;19923;-63
2023/03/22 08:20:45;;;;;;;;;;;10.20;99.90;;;;;;5084684;28;20040;-62
2023/03/22 08:23:14;;;;;;;8.00;3.97;;;10.00;99.90;;;;;;5086383;28;20003;-62
2023/03/22 08:25:41;;;;;;;10.52;2.63;;;10.00;99.90;;;;;;5082885;28;20126;-61
2023/03/22 08:28:08;;;;;;;5.20;2.50;;;10.20;99.90;;;;;;5086082;28;20071;-62
2023/03/22 08:30:34;;;;;;;10.32;2.80;;;10.30;99.90;;;;;;5082155;28;20561;-62
2023/03/22 08:32:59;;;;;;;;;;;10.20;99.90;;;;;;5076857;28;20071;-59
2023/03/22 08:35:25;;;;;;;7.90;2.20;;;10.20;99.90;;;;;;5080768;28;19946;-61
2023/03/22 08:37:54;;;;;;;;;;;10.20;99.90;;;;;;5082670;28;20141;-63
2023/03/22 08:40:21;;;;;;;11.13;3.03;;;10.10;99.90;;;;;;5072593;28;19942;-63
2023/03/22 08:42:47;;;;;;;10.90;2.47;;;10.10;99.90;;;;;;5085944;28;20132;-60
2023/03/22 08:45:13;;;;;;;7.47;2.28;;;10.20;99.90;;;;;;5081319;28;20040;-57
2023/03/22 08:47:40;;;;;;;;;;;10.30;99.90;;;;;;5085192;28;20155;-64
2023/03/22 08:50:06;;;;;;;7.32;2.75;;;10.30;99.90;;;;;;5080863;28;19920;-62
2023/03/22 08:52:32;;;;;;;6.20;2.65;;;10.30;99.90;;;;;;5083072;28;20759;-62
2023/03/22 08:54:58;;;;;;;;;;;10.30;99.90;;;;;;5075290;28;20033;-62
2023/03/22 08:57:26;;;;;;;9.38;2.33;;;10.20;99.90;;;;;;5075877;28;19915;-61
2023/03/22 08:59:52;;;;;;;7.90;2.30;;;10.20;99.90;;;;;;5083799;28;20035;-62
2023/03/22 09:02:18;;;;;;;6.13;2.30;;;10.20;99.90;;;;;;5084080;28;20135;-62
2023/03/22 09:04:44;;;;;;;;;;;10.20;99.90;;;;;;5080476;28;20119;-61
2023/03/22 09:07:10;;;;;;;8.05;3.45;;;10.30;99.90;;;;;;5084091;28;19947;-63
2023/03/22 09:09:35;;;;;;;;;;;10.30;99.90;;;;;;5080404;28;20039;-61
2023/03/22 09:12:01;;;;;;;6.53;2.88;;;10.40;99.90;;;;;;5085960;28;19919;-61
2023/03/22 09:14:26;;;;;;;9.20;2.22;;;10.40;99.90;;;;;;5078942;28;20695;-61
2023/03/22 09:16:52;;;;;;;;;;;10.30;99.90;;;;;;5084482;28;20037;-63
2023/03/22 09:19:18;;;;;;;5.78;2.20;;;10.40;99.90;;;;;;5080548;28;19919;-63
2023/03/22 09:21:43;;;;;;;;;;;10.40;99.90;;;;;;5083441;28;20481;-61
2023/03/22 09:24:09;;;;;;;5.72;2.17;;;10.40;99.90;;;;;;5077843;28;20744;-62
2023/03/22 09:26:35;;;;;;;9.18;2.03;;;10.50;99.90;;;;;;5085959;28;20084;-62
2023/03/22 09:29:01;;;;;;;5.28;1.85;;;10.50;99.90;;;;;;5084489;28;20484;-62
2023/03/22 09:31:27;;;;;;;;;;;10.50;99.90;;;;;;5082082;28;20043;-60
2023/03/22 09:33:52;;;;;;;8.27;1.90;;;10.40;99.90;;;;;;5083098;28;19916;-59
2023/03/22 09:36:18;;;;;;;;;;;10.30;99.90;;;;;;5083380;28;20664;-61
2023/03/22 09:38:45;;;;;;;5.30;2.20;;;10.30;99.90;;;;;;5081904;28;20363;-58
2023/03/22 09:41:22;;;;;;;7.63;3.17;;;10.30;99.90;;;;;;5084894;28;20040;-61
2023/03/22 09:43:53;;;;;;;5.00;1.88;;;10.30;99.90;;;;;;5078599;28;20036;-57
2023/03/22 09:46:44;;;;;;;9.73;1.92;;;10.30;99.90;;;;;;5083974;28;20115;-60
2023/03/22 09:49:17;;;;;;;6.63;2.67;;;10.50;99.90;;;;;;5080538;28;20543;-62
2023/03/22 09:51:46;;;;;;;8.38;2.70;;;10.60;99.90;;;;;;5084080;28;20040;-62
2023/03/22 09:54:17;;;;;;;6.07;2.00;;;10.70;99.90;;;;;;5080922;28;20093;-62
2023/03/22 09:56:48;;;;;;;10.93;2.45;;;10.80;99.90;;;;;;5079927;28;20040;-63
2023/03/22 09:59:21;;;;;;;7.47;2.10;;;10.90;99.90;;;;;;5081529;28;20043;-62
2023/03/22 10:01:53;;;;;;;5.55;1.98;;;10.80;99.90;;;;;;5083745;28;20040;-67
2023/03/22 10:04:40;;;;;;;5.22;2.00;;;10.70;99.90;;;;;;5078493;28;20036;-63
2023/03/22 10:07:18;;;;;;;5.85;1.98;;;10.80;99.90;;;;;;5063611;28;20052;-62
2023/03/22 10:09:55;;;;;;;8.90;2.33;;;10.90;99.90;;;;;;5081171;28;20071;-62
2023/03/22 10:12:27;;;;;;;7.40;1.95;;;10.90;99.90;;;;;;5085066;28;20040;-62
2023/03/22 10:15:16;;;;;;;6.00;1.98;;;11.10;99.90;;;;;;5077787;28;20040;-62
2023/03/22 10:17:50;;;;;;;4.47;1.73;;;11.20;99.90;;;;;;5073348;28;20133;-63
2023/03/22 10:20:33;;;;;;;5.85;1.73;;;11.40;99.90;;;;;;5083186;28;20086;-63
2023/03/22 10:23:00;;;;;;;6.93;1.92;;;11.40;99.90;;;;;;5084724;28;20162;-64
2023/03/22 10:25:44;;;;;;;5.85;1.48;;;11.20;99.90;;;;;;5080161;28;20519;-59
2023/03/22 10:28:18;;;;;;;6.78;2.03;;;11.20;99.90;;;;;;5076073;28;20052;-62
2023/03/22 10:30:49;;;;;;;5.13;1.60;;;11.30;99.90;;;;;;5082107;28;20058;-61
2023/03/22 10:34:01;;;;;;;6.75;2.13;;;11.40;99.90;;;;;;5083185;28;20048;-61
2023/03/22 10:36:33;;;;;;;7.38;1.70;;;11.50;99.90;;;;;;5059377;28;20074;-62
2023/03/22 10:39:22;;;;;;;4.63;1.70;;;11.60;99.90;;;;;;5086634;28;20040;-62
2023/03/22 10:41:49;;;;;;;4.15;2.00;;;11.50;99.90;;;;;;5084857;28;20197;-61
2023/03/22 10:44:18;;;;;;;6.18;1.83;;;11.40;99.90;;;;;;5082696;28;20043;-62
2023/03/22 10:46:45;;;;;;;8.38;1.88;;;11.40;99.90;;;;;;5085562;28;20047;-62
2023/03/22 10:49:24;;;;;;;5.65;1.77;;;11.30;99.90;;;;;;5081386;28;20549;-62
2023/03/22 10:51:55;;;;;;;7.00;2.00;;;11.30;99.90;;;;;;5084782;28;20048;-61
2023/03/22 10:54:22;;;;;;;8.50;2.00;;;11.30;99.90;;;;;;5082712;28;20044;-61
2023/03/22 10:56:48;;;;;;;11.60;1.55;;;11.40;99.90;;;;;;5085626;28;20504;-62
2023/03/22 10:59:46;;;;;;;;;;;11.30;99.90;;;;;;5081298;28;20050;-63
2023/03/22 11:02:27;;;;;;;6.63;1.70;;;11.20;99.90;;;;;;5031885;28;19920;-62
2023/03/22 11:04:55;;;;;;;3.80;1.73;;;;;;;;;;5064148;28;20432;-63
2023/03/22 11:07:26;;;;;;;4.78;1.85;;;;;;;;;;5070774;28;20048;-63
2023/03/22 11:10:10;;;;;;;4.88;1.13;;;;;;;;;;5071075;28;20032;-63
2023/03/22 11:12:37;;;;;;;8.45;1.80;;;;;;;;;;5058799;28;20119;-62
2023/03/22 11:15:04;;;;;;;6.65;1.48;;;;;;;;;;5063362;28;20028;-64
2023/03/22 11:17:31;;;;;;;6.57;1.52;;;;;;;;;;5065390;28;20040;-62
2023/03/22 11:19:59;;;;;;;5.40;1.38;;;;;;;;;;5070390;28;20047;-63
2023/03/22 11:22:36;;;;;;;6.35;1.38;;;;;;;;;;5077774;28;20045;-63
2023/03/22 11:25:03;;;;;;;7.28;1.60;;;;;;;;;;5061871;28;20037;-61
2023/03/22 11:27:31;;;;;;;7.47;1.70;;;;;;;;;;5064964;28;20051;-63
2023/03/22 11:29:59;;;;;;;7.07;1.73;;;;;;;;;;5068253;28;20408;-62
2023/03/22 11:32:25;;;;;;;6.25;1.75;;;;;;;;;;5077004;28;20045;-62
2023/03/22 11:34:52;;;;;;;;;;;;;;;;;;5066783;28;20037;-61
2023/03/22 11:37:18;;;;;;;5.10;1.73;;;;;;;;;;5073086;28;20015;-62
2023/03/22 11:39:44;;;;;;;;;;;;;;;;;;5065868;28;20139;-63
2023/03/22 11:42:18;;;;;;;8.32;1.40;;;;;;;;;;5076525;28;19927;-62
2023/03/22 11:44:44;;;;;;;5.20;1.70;;;;;;;;;;5062259;28;20567;-61
2023/03/22 11:47:11;;;;;;;3.42;1.30;;;;;;;;;;5064829;28;20064;-62
2023/03/22 11:49:39;;;;;;;3.17;1.10;;;;;;;;;;5062072;28;20051;-61
2023/03/22 11:52:11;;;;;;;4.93;1.42;;;;;;;;;;5073793;28;20465;-63
2023/03/22 11:54:38;;;;;;;5.13;1.70;;;;;;;;;;5061749;28;20060;-59
2023/03/22 11:57:05;;;;;;;3.05;1.20;;;;;;;;;;5080247;28;20037;-61
2023/03/22 11:59:38;;;;;;;4.63;1.25;;;;;;;;;;5056639;28;20044;-61
2023/03/22 12:02:17;;;;;;;3.47;1.48;;;;;;;;;;5071733;28;20037;-61
2023/03/22 12:04:44;;;;;;;6.00;1.48;;;;;;;;;;5060426;28;20676;-63
2023/03/22 12:07:14;;;;;;;4.88;1.60;;;;;;;;;;5074317;28;20143;-62
2023/03/22 12:09:40;;;;;;;4.53;1.40;;;;;;;;;;5066757;28;20039;-63
2023/03/22 12:12:09;;;;;;;5.07;1.17;;;;;;;;;;5065673;28;20593;-63
2023/03/22 12:14:51;;;;;;;5.50;1.17;;;;;;;;;;5066390;28;20058;-62
2023/03/22 12:17:24;;;;;;;13.25;1.90;;;;;;;;;;5068437;28;20059;-63
2023/03/22 12:19:58;;;;;;;3.90;1.20;;;;;;;;;;5069295;28;20065;-63
2023/03/22 12:22:34;;;;;;;7.18;1.40;;;;;;;;;;5082031;28;20124;-63
2023/03/22 12:25:02;;;;;;;3.67;1.83;;;;;;;;;;5071456;28;20048;-63
2023/03/22 12:27:33;;;;;;;6.93;1.30;;;;;;;;;;5080678;28;20581;-62
2023/03/22 12:30:07;;;;;;;4.55;1.45;;;;;;;;;;5072209;28;20071;-63
2023/03/22 12:32:40;;;;;;;6.47;1.30;;;;;;;;;;5055273;28;20093;-63
2023/03/22 12:35:07;;;;;;;4.50;1.38;;;;;;;;;;5054891;28;20090;-61
2023/03/22 12:37:34;;;;;;;4.00;1.35;;;;;;;;;;5059076;28;20437;-61
2023/03/22 12:40:05;;;;;;;5.38;1.42;;;;;;;;;;5053621;28;20048;-63
2023/03/22 12:42:37;;;;;;;3.15;0.93;;;;;;;;;;5056919;28;20103;-62
2023/03/22 12:45:23;;;;;;;4.97;1.25;;;;;;;;;;5052016;28;20032;-63
2023/03/22 12:48:01;;;;;;;3.65;1.15;;;;;;;;;;5058514;28;20033;-61
2023/03/22 12:50:36;;;;;;;6.63;1.98;;;;;;;;;;5059861;28;20036;-63
2023/03/22 12:53:03;;;;;;;7.43;1.15;;;;;;;;;;5059311;28;20040;-61
2023/03/22 12:55:33;;;;;;;3.83;1.00;;;;;;;;;;5052137;28;20048;-61
2023/03/22 12:58:00;;;;;;;3.55;0.90;;;;;;;;;;5059620;28;20435;-62
2023/03/22 13:00:49;;;;;;;3.35;1.00;;;;;;;;;;5061946;28;20185;-63
2023/03/22 13:03:16;;;;;;;4.05;1.83;;;;;;;;;;5055029;28;20049;-61
2023/03/22 13:05:43;;;;;;;4.55;1.20;;;;;;;;;;5057562;28;20094;-62
2023/03/22 13:08:09;;;;;;;4.15;1.20;;;;;;;;;;5056216;28;20539;-64
2023/03/22 13:10:37;;;;;;;4.75;1.02;;;;;;;;;;5065846;28;20068;-63
2023/03/22 13:13:06;;;;;;;2.58;1.00;;;;;;;;;;5058118;28;20041;-64
2023/03/22 13:15:34;;;;;;;6.03;0.95;;;;;;;;;;5052971;28;20033;-60
2023/03/22 13:18:00;;;;;;;3.03;0.82;;;;;;;;;;5054485;28;20044;-63
2023/03/22 13:20:27;;;;;;;5.32;0.70;;;;;;;;;;5055715;28;20044;-62
2023/03/22 13:22:54;;;;;;;4.93;1.08;;;;;;;;;;5052173;28;20082;-63
2023/03/22 13:25:30;;;;;;;3.00;0.77;;;;;;;;;;5055187;28;20131;-63
2023/03/22 13:27:56;;;;;;;;;;;;;;;;;;5053772;28;21322;-61
2023/03/22 13:30:22;;;;;;;8.27;1.00;;;;;;;;;;5054951;28;19924;-61